sensor_id;sensor_type;location;lat;lon;timestamp;pressure;altitude;pressure_sealevel;temperature;humidity
22605;BME280;11469;49.024;8.246;2022-10-31T00:00:00;100853.44;;;10.87;100.00
22605;BME280;11469;49.024;8.246;2022-10-31T00:02:26;100848.53;;;10.84;100.00
22605;BME280;11469;49.024;8.246;2022-10-31T00:04:51;100852.84;;;10.81;100.00
22605;BME280;11469;49.024;8.246;2022-10-31T00:07:17;100837.19;;;10.80;100.00
22605;BME280;11469;49.024;8.246;2022-10-31T00:09:42;100843.03;;;10.75;100.00
22605;BME280;11469;49.024;8.246;2022-10-31T00:12:07;100839.66;;;10.70;100.00
22605;BME280;11469;49.024;8.246;2022-10-31T00:14:33;100847.59;;;10.68;100.00
22605;BME280;11469;49.024;8.246;2022-10-31T00:16:58;100851.91;;;10.65;100.00
22605;BME280;11469;49.024;8.246;2022-10-31T00:19:23;100841.88;;;10.64;100.00
22605;BME280;11469;49.024;8.246;2022-10-31T00:21:51;100845.03;;;10.62;100.00
22605;BME280;11469;49.024;8.246;2022-10-31T00:24:17;100842.94;;;10.59;100.00
22605;BME280;11469;49.024;8.246;2022-10-31T00:26:42;100849.81;;;10.62;100.00
22605;BME280;11469;49.024;8.246;2022-10-31T00:29:07;100840.59;;;10.61;100.00
22605;BME280;11469;49.024;8.246;2022-10-31T00:31:33;100845.84;;;10.63;100.00
22605;BME280;11469;49.024;8.246;2022-10-31T00:33:58;100846.66;;;10.63;100.00
22605;BME280;11469;49.024;8.246;2022-10-31T00:36:24;100838.59;;;10.62;100.00
22605;BME280;11469;49.024;8.246;2022-10-31T00:38:49;100837.78;;;10.61;100.00
22605;BME280;11469;49.024;8.246;2022-10-31T00:41:16;100841.06;;;10.63;100.00
22605;BME280;11469;49.024;8.246;2022-10-31T00:43:42;100836.63;;;10.62;100.00
22605;BME280;11469;49.024;8.246;2022-10-31T00:46:08;100842.69;;;10.64;100.00
22605;BME280;11469;49.024;8.246;2022-10-31T00:48:34;100840.25;;;10.63;100.00
22605;BME280;11469;49.024;8.246;2022-10-31T00:50:59;100845.03;;;10.62;100.00
22605;BME280;11469;49.024;8.246;2022-10-31T00:53:24;100842.56;;;10.61;100.00
22605;BME280;11469;49.024;8.246;2022-10-31T00:55:50;100837.09;;;10.52;100.00
22605;BME280;11469;49.024;8.246;2022-10-31T00:58:16;100837.91;;;10.53;100.00
22605;BME280;11469;49.024;8.246;2022-10-31T01:00:41;100833.13;;;10.53;100.00
22605;BME280;11469;49.024;8.246;2022-10-31T01:03:07;100836.72;;;10.54;100.00
22605;BME280;11469;49.024;8.246;2022-10-31T01:05:32;100841.41;;;10.50;100.00
22605;BME280;11469;49.024;8.246;2022-10-31T01:07:58;100841.75;;;10.48;100.00
22605;BME280;11469;49.024;8.246;2022-10-31T01:10:23;100845.13;;;10.42;100.00
22605;BME280;11469;49.024;8.246;2022-10-31T01:12:49;100846.69;;;10.39;100.00
22605;BME280;11469;49.024;8.246;2022-10-31T01:15:24;100848.66;;;10.39;100.00
22605;BME280;11469;49.024;8.246;2022-10-31T01:17:49;100842.69;;;10.40;100.00
22605;BME280;11469;49.024;8.246;2022-10-31T01:20:16;100843.50;;;10.53;100.00
22605;BME280;11469;49.024;8.246;2022-10-31T01:22:42;100850.88;;;10.45;100.00
22605;BME280;11469;49.024;8.246;2022-10-31T01:25:08;100847.94;;;10.42;100.00
22605;BME280;11469;49.024;8.246;2022-10-31T01:27:34;100850.31;;;10.40;100.00
22605;BME280;11469;49.024;8.246;2022-10-31T01:29:59;100838.97;;;10.36;100.00
22605;BME280;11469;49.024;8.246;2022-10-31T01:32:26;100840.63;;;10.37;100.00
22605;BME280;11469;49.024;8.246;2022-10-31T01:34:54;100840.97;;;10.36;100.00
22605;BME280;11469;49.024;8.246;2022-10-31T01:37:19;100844.13;;;10.34;100.00
22605;BME280;11469;49.024;8.246;2022-10-31T01:39:45;100840.03;;;10.32;100.00
22605;BME280;11469;49.024;8.246;2022-10-31T01:42:16;100842.81;;;10.32;100.00
22605;BME280;11469;49.024;8.246;2022-10-31T01:47:15;100844.81;;;10.31;100.00
22605;BME280;11469;49.024;8.246;2022-10-31T01:49:53;100836.75;;;10.29;100.00
22605;BME280;11469;49.024;8.246;2022-10-31T01:52:44;100857.19;;;10.30;100.00
22605;BME280;11469;49.024;8.246;2022-10-31T01:55:15;100844.34;;;10.29;100.00
22605;BME280;11469;49.024;8.246;2022-10-31T01:57:46;100839.91;;;10.28;100.00
22605;BME280;11469;49.024;8.246;2022-10-31T02:00:13;100842.34;;;10.29;100.00
22605;BME280;11469;49.024;8.246;2022-10-31T02:02:39;100844.91;;;10.22;100.00
22605;BME280;11469;49.024;8.246;2022-10-31T02:05:09;100842.88;;;10.11;100.00
22605;BME280;11469;49.024;8.246;2022-10-31T02:07:55;100839.84;;;10.04;100.00
22605;BME280;11469;49.024;8.246;2022-10-31T02:10:23;100836.22;;;10.03;100.00
22605;BME280;11469;49.024;8.246;2022-10-31T02:12:51;100838.53;;;10.01;100.00
22605;BME280;11469;49.024;8.246;2022-10-31T02:15:18;100841.81;;;10.03;100.00
22605;BME280;11469;49.024;8.246;2022-10-31T02:17:44;100835.88;;;10.05;100.00
22605;BME280;11469;49.024;8.246;2022-10-31T02:36:43;100842.28;;;10.05;100.00
22605;BME280;11469;49.024;8.246;2022-10-31T02:39:23;100845.66;;;9.98;100.00
22605;BME280;11469;49.024;8.246;2022-10-31T02:42:01;100841.22;;;9.97;100.00
22605;BME280;11469;49.024;8.246;2022-10-31T02:44:39;100837.25;;;9.98;100.00
22605;BME280;11469;49.024;8.246;2022-10-31T02:52:25;100835.16;;;9.83;100.00
22605;BME280;11469;49.024;8.246;2022-10-31T02:54:51;100834.22;;;9.91;100.00
22605;BME280;11469;49.024;8.246;2022-10-31T02:57:28;100833.84;;;9.81;100.00
22605;BME280;11469;49.024;8.246;2022-10-31T03:00:00;100829.75;;;9.78;100.00
22605;BME280;11469;49.024;8.246;2022-10-31T03:11:09;100831.53;;;9.83;100.00
22605;BME280;11469;49.024;8.246;2022-10-31T03:13:47;100835.22;;;9.75;100.00
22605;BME280;11469;49.024;8.246;2022-10-31T03:16:37;100828.81;;;9.74;100.00
22605;BME280;11469;49.024;8.246;2022-10-31T03:21:40;100832.31;;;9.71;100.00
22605;BME280;11469;49.024;8.246;2022-10-31T03:24:09;100832.66;;;9.70;100.00
22605;BME280;11469;49.024;8.246;2022-10-31T03:26:38;100830.31;;;9.72;100.00
22605;BME280;11469;49.024;8.246;2022-10-31T03:29:09;100833.47;;;9.70;100.00
22605;BME280;11469;49.024;8.246;2022-10-31T03:31:44;100829.03;;;9.69;100.00
22605;BME280;11469;49.024;8.246;2022-10-31T03:34:12;100823.78;;;9.68;100.00
22605;BME280;11469;49.024;8.246;2022-10-31T03:36:39;100823.31;;;9.65;100.00
22605;BME280;11469;49.024;8.246;2022-10-31T03:39:07;100824.34;;;9.61;100.00
22605;BME280;11469;49.024;8.246;2022-10-31T03:41:39;100824.22;;;9.57;100.00
22605;BME280;11469;49.024;8.246;2022-10-31T03:44:08;100817.78;;;9.45;100.00
22605;BME280;11469;49.024;8.246;2022-10-31T03:46:35;100827.34;;;9.44;100.00
22605;BME280;11469;49.024;8.246;2022-10-31T03:49:01;100819.16;;;9.39;100.00
22605;BME280;11469;49.024;8.246;2022-10-31T03:54:25;100828.78;;;9.29;100.00
22605;BME280;11469;49.024;8.246;2022-10-31T03:56:59;100838.00;;;9.29;100.00
22605;BME280;11469;49.024;8.246;2022-10-31T03:59:32;100826.81;;;9.29;100.00
22605;BME280;11469;49.024;8.246;2022-10-31T04:02:06;100824.34;;;9.28;100.00
22605;BME280;11469;49.024;8.246;2022-10-31T04:04:33;100832.41;;;9.29;100.00
22605;BME280;11469;49.024;8.246;2022-10-31T04:07:00;100825.16;;;9.28;100.00
22605;BME280;11469;49.024;8.246;2022-10-31T04:09:27;100825.16;;;9.28;100.00
22605;BME280;11469;49.024;8.246;2022-10-31T04:11:56;100827.50;;;9.26;100.00
22605;BME280;11469;49.024;8.246;2022-10-31T04:14:26;100826.53;;;9.22;100.00
22605;BME280;11469;49.024;8.246;2022-10-31T04:16:53;100830.84;;;9.20;100.00
22605;BME280;11469;49.024;8.246;2022-10-31T04:19:19;100829.31;;;9.22;100.00
22605;BME280;11469;49.024;8.246;2022-10-31T04:21:44;100831.09;;;9.27;100.00
22605;BME280;11469;49.024;8.246;2022-10-31T04:24:10;100831.91;;;9.27;100.00
22605;BME280;11469;49.024;8.246;2022-10-31T04:26:36;100827.16;;;9.28;100.00
22605;BME280;11469;49.024;8.246;2022-10-31T04:29:02;100825.84;;;9.25;100.00
22605;BME280;11469;49.024;8.246;2022-10-31T04:31:27;100829.00;;;9.24;100.00
22605;BME280;11469;49.024;8.246;2022-10-31T04:33:52;100825.56;;;9.18;100.00
22605;BME280;11469;49.024;8.246;2022-10-31T04:36:18;100829.41;;;9.14;100.00
22605;BME280;11469;49.024;8.246;2022-10-31T04:38:43;100835.69;;;9.11;100.00
22605;BME280;11469;49.024;8.246;2022-10-31T04:41:09;100832.88;;;9.11;100.00
22605;BME280;11469;49.024;8.246;2022-10-31T04:43:34;100832.75;;;9.07;100.00
22605;BME280;11469;49.024;8.246;2022-10-31T04:46:00;100828.66;;;9.05;100.00
22605;BME280;11469;49.024;8.246;2022-10-31T04:48:25;100830.28;;;9.06;100.00
22605;BME280;11469;49.024;8.246;2022-10-31T04:50:51;100824.22;;;9.04;100.00
22605;BME280;11469;49.024;8.246;2022-10-31T04:53:16;100826.66;;;9.05;100.00
22605;BME280;11469;49.024;8.246;2022-10-31T04:55:41;100823.53;;;9.07;100.00
22605;BME280;11469;49.024;8.246;2022-10-31T04:58:07;100823.41;;;9.03;100.00
22605;BME280;11469;49.024;8.246;2022-10-31T05:00:32;100813.38;;;9.02;100.00
22605;BME280;11469;49.024;8.246;2022-10-31T05:02:58;100809.06;;;9.05;100.00
22605;BME280;11469;49.024;8.246;2022-10-31T05:05:28;100808.94;;;9.01;100.00
22605;BME280;11469;49.024;8.246;2022-10-31T05:07:54;100798.22;;;9.03;100.00
22605;BME280;11469;49.024;8.246;2022-10-31T05:10:22;100800.31;;;8.94;100.00
22605;BME280;11469;49.024;8.246;2022-10-31T05:12:53;100800.50;;;8.89;100.00
22605;BME280;11469;49.024;8.246;2022-10-31T05:15:21;100797.22;;;8.87;100.00
22605;BME280;11469;49.024;8.246;2022-10-31T05:17:46;100803.66;;;8.87;100.00
22605;BME280;11469;49.024;8.246;2022-10-31T05:20:14;100809.44;;;8.82;100.00
22605;BME280;11469;49.024;8.246;2022-10-31T05:22:44;100804.19;;;8.81;100.00
22605;BME280;11469;49.024;8.246;2022-10-31T05:25:10;100800.91;;;8.79;100.00
22605;BME280;11469;49.024;8.246;2022-10-31T05:27:41;100805.69;;;8.78;100.00
22605;BME280;11469;49.024;8.246;2022-10-31T05:30:08;100806.97;;;8.81;100.00
22605;BME280;11469;49.024;8.246;2022-10-31T05:32:41;100799.41;;;8.81;100.00
22605;BME280;11469;49.024;8.246;2022-10-31T05:35:09;100801.19;;;8.86;100.00
22605;BME280;11469;49.024;8.246;2022-10-31T05:37:37;100805.00;;;8.81;100.00
22605;BME280;11469;49.024;8.246;2022-10-31T05:40:04;100802.06;;;8.78;100.00
22605;BME280;11469;49.024;8.246;2022-10-31T05:42:30;100812.63;;;8.72;100.00
22605;BME280;11469;49.024;8.246;2022-10-31T05:44:55;100811.00;;;8.71;100.00
22605;BME280;11469;49.024;8.246;2022-10-31T05:47:21;100809.50;;;8.74;100.00
22605;BME280;11469;49.024;8.246;2022-10-31T05:49:46;100805.06;;;8.73;100.00
22605;BME280;11469;49.024;8.246;2022-10-31T05:52:11;100799.94;;;8.75;100.00
22605;BME280;11469;49.024;8.246;2022-10-31T05:54:37;100801.88;;;8.83;100.00
22605;BME280;11469;49.024;8.246;2022-10-31T05:57:02;100798.13;;;8.79;100.00
22605;BME280;11469;49.024;8.246;2022-10-31T05:59:27;100801.59;;;8.76;100.00
22605;BME280;11469;49.024;8.246;2022-10-31T06:01:53;100800.97;;;8.70;100.00
22605;BME280;11469;49.024;8.246;2022-10-31T06:04:18;100800.97;;;8.70;100.00
22605;BME280;11469;49.024;8.246;2022-10-31T06:06:43;100808.06;;;8.68;100.00
22605;BME280;11469;49.024;8.246;2022-10-31T06:09:09;100797.88;;;8.63;100.00
22605;BME280;11469;49.024;8.246;2022-10-31T06:11:34;100805.44;;;8.62;100.00
22605;BME280;11469;49.024;8.246;2022-10-31T06:14:00;100811.03;;;8.62;100.00
22605;BME280;11469;49.024;8.246;2022-10-31T06:16:25;100805.94;;;8.64;100.00
22605;BME280;11469;49.024;8.246;2022-10-31T06:18:50;100804.09;;;8.69;100.00
22605;BME280;11469;49.024;8.246;2022-10-31T06:21:16;100806.22;;;8.72;100.00
22605;BME280;11469;49.024;8.246;2022-10-31T06:23:41;100807.03;;;8.72;100.00
22605;BME280;11469;49.024;8.246;2022-10-31T06:26:07;100797.16;;;8.75;100.00
22605;BME280;11469;49.024;8.246;2022-10-31T06:28:32;100803.22;;;8.77;100.00
22605;BME280;11469;49.024;8.246;2022-10-31T06:30:57;100802.41;;;8.76;100.00
22605;BME280;11469;49.024;8.246;2022-10-31T06:33:23;100803.38;;;8.80;100.00
22605;BME280;11469;49.024;8.246;2022-10-31T06:35:48;100795.59;;;8.86;100.00
22605;BME280;11469;49.024;8.246;2022-10-31T06:38:14;100801.31;;;8.89;100.00
22605;BME280;11469;49.024;8.246;2022-10-31T06:40:39;100799.50;;;8.93;100.00
22605;BME280;11469;49.024;8.246;2022-10-31T06:43:04;100802.41;;;8.97;100.00
22605;BME280;11469;49.024;8.246;2022-10-31T06:45:30;100798.56;;;9.02;100.00
22605;BME280;11469;49.024;8.246;2022-10-31T06:47:56;100802.53;;;9.21;100.00
22605;BME280;11469;49.024;8.246;2022-10-31T06:50:22;100803.69;;;9.20;100.00
22605;BME280;11469;49.024;8.246;2022-10-31T06:52:56;100804.84;;;9.19;100.00
22605;BME280;11469;49.024;8.246;2022-10-31T06:55:22;100805.88;;;9.15;100.00
22605;BME280;11469;49.024;8.246;2022-10-31T06:57:59;100804.91;;;9.11;100.00
22605;BME280;11469;49.024;8.246;2022-10-31T07:00:26;100809.91;;;9.05;100.00
22605;BME280;11469;49.024;8.246;2022-10-31T07:03:06;100817.25;;;9.10;100.00
22605;BME280;11469;49.024;8.246;2022-10-31T07:05:32;100814.06;;;9.20;100.00
22605;BME280;11469;49.024;8.246;2022-10-31T07:08:03;100805.72;;;9.32;100.00
22605;BME280;11469;49.024;8.246;2022-10-31T07:10:31;100810.09;;;9.54;100.00
22605;BME280;11469;49.024;8.246;2022-10-31T07:12:58;100798.34;;;9.60;100.00
22605;BME280;11469;49.024;8.246;2022-10-31T07:15:25;100807.63;;;9.52;100.00
22605;BME280;11469;49.024;8.246;2022-10-31T07:17:51;100804.38;;;9.50;100.00
22605;BME280;11469;49.024;8.246;2022-10-31T07:20:16;100812.88;;;9.54;100.00
22605;BME280;11469;49.024;8.246;2022-10-31T07:22:42;100809.06;;;9.58;100.00
22605;BME280;11469;49.024;8.246;2022-10-31T07:25:08;100810.47;;;9.64;100.00
22605;BME280;11469;49.024;8.246;2022-10-31T07:27:41;100807.47;;;9.70;100.00
22605;BME280;11469;49.024;8.246;2022-10-31T07:30:08;100818.91;;;9.77;100.00
22605;BME280;11469;49.024;8.246;2022-10-31T07:32:45;100818.00;;;9.85;100.00
22605;BME280;11469;49.024;8.246;2022-10-31T07:35:13;100819.16;;;9.96;100.00
22605;BME280;11469;49.024;8.246;2022-10-31T07:37:39;100802.25;;;10.05;100.00
22605;BME280;11469;49.024;8.246;2022-10-31T07:40:05;100808.56;;;10.14;100.00
22605;BME280;11469;49.024;8.246;2022-10-31T07:42:37;100810.59;;;10.25;100.00
22605;BME280;11469;49.024;8.246;2022-10-31T07:45:04;100818.09;;;10.34;100.00
22605;BME280;11469;49.024;8.246;2022-10-31T07:47:30;100814.31;;;10.42;100.00
22605;BME280;11469;49.024;8.246;2022-10-31T07:50:02;100815.38;;;10.61;100.00
22605;BME280;11469;49.024;8.246;2022-10-31T07:52:28;100816.63;;;10.76;100.00
22605;BME280;11469;49.024;8.246;2022-10-31T07:54:53;100818.44;;;10.96;100.00
22605;BME280;11469;49.024;8.246;2022-10-31T07:57:18;100818.44;;;10.96;100.00
22605;BME280;11469;49.024;8.246;2022-10-31T07:59:44;100819.69;;;11.11;100.00
22605;BME280;11469;49.024;8.246;2022-10-31T08:02:09;100821.78;;;11.14;100.00
22605;BME280;11469;49.024;8.246;2022-10-31T08:04:34;100826.22;;;11.15;100.00
22605;BME280;11469;49.024;8.246;2022-10-31T08:07:00;100821.66;;;11.23;100.00
22605;BME280;11469;49.024;8.246;2022-10-31T08:09:25;100822.22;;;11.28;100.00
22605;BME280;11469;49.024;8.246;2022-10-31T08:11:50;100824.78;;;11.34;100.00
22605;BME280;11469;49.024;8.246;2022-10-31T08:14:17;100814.78;;;11.64;100.00
22605;BME280;11469;49.024;8.246;2022-10-31T08:16:42;100809.72;;;11.70;100.00
22605;BME280;11469;49.024;8.246;2022-10-31T08:19:08;100816.16;;;11.70;100.00
22605;BME280;11469;49.024;8.246;2022-10-31T08:21:33;100813.00;;;11.72;100.00
22605;BME280;11469;49.024;8.246;2022-10-31T08:23:59;100812.31;;;11.90;100.00
22605;BME280;11469;49.024;8.246;2022-10-31T08:26:24;100809.59;;;11.94;100.00
22605;BME280;11469;49.024;8.246;2022-10-31T08:28:49;100811.94;;;11.92;100.00
22605;BME280;11469;49.024;8.246;2022-10-31T08:31:15;100806.63;;;12.03;100.00
22605;BME280;11469;49.024;8.246;2022-10-31T08:33:40;100813.16;;;12.07;100.00
22605;BME280;11469;49.024;8.246;2022-10-31T08:36:06;100820.50;;;12.11;100.00
22605;BME280;11469;49.024;8.246;2022-10-31T08:38:31;100809.44;;;12.18;100.00
22605;BME280;11469;49.024;8.246;2022-10-31T08:40:57;100818.41;;;12.24;100.00
22605;BME280;11469;49.024;8.246;2022-10-31T08:43:22;100809.78;;;12.33;100.00
22605;BME280;11469;49.024;8.246;2022-10-31T08:45:48;100809.50;;;12.38;100.00
22605;BME280;11469;49.024;8.246;2022-10-31T08:48:16;100802.88;;;12.46;100.00
22605;BME280;11469;49.024;8.246;2022-10-31T08:50:42;100797.59;;;12.60;100.00
22605;BME280;11469;49.024;8.246;2022-10-31T08:53:14;100807.69;;;12.80;100.00
22605;BME280;11469;49.024;8.246;2022-10-31T08:55:41;100808.75;;;12.91;100.00
22605;BME280;11469;49.024;8.246;2022-10-31T08:58:10;100803.28;;;12.99;100.00
22605;BME280;11469;49.024;8.246;2022-10-31T09:00:37;100805.81;;;13.04;100.00
22605;BME280;11469;49.024;8.246;2022-10-31T09:03:05;100803.72;;;13.16;100.00
22605;BME280;11469;49.024;8.246;2022-10-31T09:05:31;100788.16;;;13.22;100.00
22605;BME280;11469;49.024;8.246;2022-10-31T09:07:57;100792.28;;;13.28;100.00
22605;BME280;11469;49.024;8.246;2022-10-31T09:10:24;100789.97;;;13.53;100.00
22605;BME280;11469;49.024;8.246;2022-10-31T09:13:07;100785.06;;;13.70;100.00
22605;BME280;11469;49.024;8.246;2022-10-31T09:15:35;100782.34;;;13.77;100.00
22605;BME280;11469;49.024;8.246;2022-10-31T09:18:01;100789.81;;;13.88;100.00
22605;BME280;11469;49.024;8.246;2022-10-31T09:20:27;100784.31;;;13.95;100.00
22605;BME280;11469;49.024;8.246;2022-10-31T09:23:00;100785.19;;;14.00;100.00
22605;BME280;11469;49.024;8.246;2022-10-31T09:25:27;100778.81;;;14.03;100.00
22605;BME280;11469;49.024;8.246;2022-10-31T09:28:00;100774.88;;;14.07;100.00
22605;BME280;11469;49.024;8.246;2022-10-31T09:30:31;100779.31;;;14.08;100.00
22605;BME280;11469;49.024;8.246;2022-10-31T09:33:01;100779.44;;;14.15;100.00
22605;BME280;11469;49.024;8.246;2022-10-31T09:35:27;100775.13;;;14.25;100.00
22605;BME280;11469;49.024;8.246;2022-10-31T09:37:56;100780.41;;;14.26;100.00
22605;BME280;11469;49.024;8.246;2022-10-31T09:51:05;100772.88;;;14.57;100.00
22605;BME280;11469;49.024;8.246;2022-10-31T09:53:39;100765.75;;;14.67;100.00
22605;BME280;11469;49.024;8.246;2022-10-31T09:56:17;100771.09;;;14.75;100.00
22605;BME280;11469;49.024;8.246;2022-10-31T09:58:55;100774.75;;;14.76;100.00
22605;BME280;11469;49.024;8.246;2022-10-31T10:03:59;100765.66;;;14.89;100.00
22605;BME280;11469;49.024;8.246;2022-10-31T10:06:29;100761.75;;;14.98;100.00
22605;BME280;11469;49.024;8.246;2022-10-31T10:08:55;100758.25;;;15.08;100.00
22605;BME280;11469;49.024;8.246;2022-10-31T10:14:23;100756.25;;;15.08;100.00
22605;BME280;11469;49.024;8.246;2022-10-31T10:30:20;100742.94;;;15.09;100.00
22605;BME280;11469;49.024;8.246;2022-10-31T10:32:56;100744.34;;;15.25;100.00
22605;BME280;11469;49.024;8.246;2022-10-31T10:37:58;100748.50;;;15.35;99.87
22605;BME280;11469;49.024;8.246;2022-10-31T10:40:27;100747.81;;;15.45;97.61
22605;BME280;11469;49.024;8.246;2022-10-31T10:45:57;100737.31;;;15.46;99.22
22605;BME280;11469;49.024;8.246;2022-10-31T10:49:28;100733.06;;;15.63;97.99
22605;BME280;11469;49.024;8.246;2022-10-31T10:54:24;100725.94;;;15.76;97.85
22605;BME280;11469;49.024;8.246;2022-10-31T10:59:40;100725.28;;;15.89;94.54
22605;BME280;11469;49.024;8.246;2022-10-31T11:02:20;100714.38;;;15.91;94.92
22605;BME280;11469;49.024;8.246;2022-10-31T11:04:50;100711.63;;;15.99;95.21
22605;BME280;11469;49.024;8.246;2022-10-31T11:07:17;100703.09;;;15.91;94.83
22605;BME280;11469;49.024;8.246;2022-10-31T11:09:43;100704.34;;;15.98;95.93
22605;BME280;11469;49.024;8.246;2022-10-31T11:12:19;100693.41;;;15.92;95.88
22605;BME280;11469;49.024;8.246;2022-10-31T11:15:06;100690.22;;;15.98;95.85
22605;BME280;11469;49.024;8.246;2022-10-31T11:17:35;100683.41;;;16.06;96.08
22605;BME280;11469;49.024;8.246;2022-10-31T11:22:44;100685.44;;;16.05;95.83
22605;BME280;11469;49.024;8.246;2022-10-31T11:27:45;100686.72;;;16.18;94.98
22605;BME280;11469;49.024;8.246;2022-10-31T11:30:12;100680.75;;;16.31;93.01
22605;BME280;11469;49.024;8.246;2022-10-31T11:32:44;100680.78;;;16.38;91.26
22605;BME280;11469;49.024;8.246;2022-10-31T11:35:15;100683.66;;;16.41;90.75
22605;BME280;11469;49.024;8.246;2022-10-31T11:37:44;100668.72;;;16.44;89.77
22605;BME280;11469;49.024;8.246;2022-10-31T11:40:21;100666.69;;;16.45;88.27
22605;BME280;11469;49.024;8.246;2022-10-31T11:42:48;100682.88;;;16.48;89.73
22605;BME280;11469;49.024;8.246;2022-10-31T11:45:29;100680.88;;;16.52;90.48
22605;BME280;11469;49.024;8.246;2022-10-31T11:47:56;100677.69;;;16.60;89.05
22605;BME280;11469;49.024;8.246;2022-10-31T11:50:25;100665.53;;;16.60;87.46
22605;BME280;11469;49.024;8.246;2022-10-31T11:52:52;100659.53;;;16.65;87.16
22605;BME280;11469;49.024;8.246;2022-10-31T11:57:53;100669.25;;;16.64;89.67
22605;BME280;11469;49.024;8.246;2022-10-31T12:00:22;100672.09;;;16.68;89.91
22605;BME280;11469;49.024;8.246;2022-10-31T12:02:49;100657.97;;;16.71;89.21
22605;BME280;11469;49.024;8.246;2022-10-31T12:05:26;100642.66;;;16.83;86.25
22605;BME280;11469;49.024;8.246;2022-10-31T12:07:58;100643.81;;;16.71;86.77
22605;BME280;11469;49.024;8.246;2022-10-31T12:10:29;100641.34;;;16.66;87.23
22605;BME280;11469;49.024;8.246;2022-10-31T12:13:16;100624.00;;;16.71;87.64
22605;BME280;11469;49.024;8.246;2022-10-31T12:15:52;100609.75;;;16.57;87.31
22605;BME280;11469;49.024;8.246;2022-10-31T12:18:56;100601.25;;;16.46;87.77
22605;BME280;11469;49.024;8.246;2022-10-31T12:21:27;100612.56;;;16.46;89.62
22605;BME280;11469;49.024;8.246;2022-10-31T12:34:56;100593.31;;;16.84;89.32
22605;BME280;11469;49.024;8.246;2022-10-31T12:48:19;100575.53;;;16.87;87.07
22605;BME280;11469;49.024;8.246;2022-10-31T12:59:35;100553.72;;;17.16;85.31
22605;BME280;11469;49.024;8.246;2022-10-31T13:05:29;100564.66;;;17.49;85.42
22605;BME280;11469;49.024;8.246;2022-10-31T13:08:06;100552.16;;;17.68;83.66
22605;BME280;11469;49.024;8.246;2022-10-31T13:10:54;100553.34;;;17.71;81.54
22605;BME280;11469;49.024;8.246;2022-10-31T13:14:15;100553.75;;;17.66;82.17
22605;BME280;11469;49.024;8.246;2022-10-31T13:16:24;100553.31;;;17.60;82.56
22605;BME280;11469;49.024;8.246;2022-10-31T13:18:58;100538.78;;;17.65;81.96
22605;BME280;11469;49.024;8.246;2022-10-31T13:21:30;100529.06;;;17.48;82.14
22605;BME280;11469;49.024;8.246;2022-10-31T13:23:59;100525.00;;;17.21;83.38
22605;BME280;11469;49.024;8.246;2022-10-31T13:26:58;100507.22;;;17.24;83.61
22605;BME280;11469;49.024;8.246;2022-10-31T13:29:34;100511.66;;;17.18;83.54
22605;BME280;11469;49.024;8.246;2022-10-31T13:32:05;100518.13;;;17.18;84.64
22605;BME280;11469;49.024;8.246;2022-10-31T13:34:35;100541.19;;;17.20;84.92
22605;BME280;11469;49.024;8.246;2022-10-31T13:37:34;100526.63;;;17.18;84.98
22605;BME280;11469;49.024;8.246;2022-10-31T13:40:13;100518.94;;;17.19;84.68
22605;BME280;11469;49.024;8.246;2022-10-31T13:42:47;100498.31;;;17.29;84.06
22605;BME280;11469;49.024;8.246;2022-10-31T13:45:20;100501.94;;;17.19;85.23
22605;BME280;11469;49.024;8.246;2022-10-31T13:50:32;100517.72;;;17.20;85.33
22605;BME280;11469;49.024;8.246;2022-10-31T13:53:20;100503.56;;;17.34;85.10
22605;BME280;11469;49.024;8.246;2022-10-31T13:58:27;100502.38;;;17.28;85.63
22605;BME280;11469;49.024;8.246;2022-10-31T14:03:41;100507.63;;;17.22;86.65
22605;BME280;11469;49.024;8.246;2022-10-31T14:06:09;100501.97;;;17.22;87.34
22605;BME280;11469;49.024;8.246;2022-10-31T14:08:39;100495.88;;;17.38;85.37
22605;BME280;11469;49.024;8.246;2022-10-31T14:11:07;100489.78;;;17.57;84.37
22605;BME280;11469;49.024;8.246;2022-10-31T14:13:42;100486.56;;;17.48;85.19
22605;BME280;11469;49.024;8.246;2022-10-31T14:16:23;100495.88;;;17.38;86.53
22605;BME280;11469;49.024;8.246;2022-10-31T14:21:38;100492.66;;;17.22;88.41
22605;BME280;11469;49.024;8.246;2022-10-31T14:26:59;100498.72;;;17.24;88.87
22605;BME280;11469;49.024;8.246;2022-10-31T14:29:29;100492.66;;;17.22;88.57
22605;BME280;11469;49.024;8.246;2022-10-31T14:34:40;100480.50;;;17.39;86.27
22605;BME280;11469;49.024;8.246;2022-10-31T14:51:07;100439.22;;;17.42;86.42
22605;BME280;11469;49.024;8.246;2022-10-31T14:53:45;100433.97;;;17.30;86.91
22605;BME280;11469;49.024;8.246;2022-10-31T14:56:11;100431.97;;;17.19;88.15
22605;BME280;11469;49.024;8.246;2022-10-31T14:58:45;100425.09;;;17.13;88.88
22605;BME280;11469;49.024;8.246;2022-10-31T15:01:35;100430.34;;;17.08;89.51
22605;BME280;11469;49.024;8.246;2022-10-31T15:04:07;100432.00;;;16.98;90.80
22605;BME280;11469;49.024;8.246;2022-10-31T15:06:43;100414.59;;;16.92;91.50
22605;BME280;11469;49.024;8.246;2022-10-31T15:09:26;100406.06;;;17.21;89.80
22605;BME280;11469;49.024;8.246;2022-10-31T15:11:52;100403.66;;;17.12;89.88
22605;BME280;11469;49.024;8.246;2022-10-31T15:14:36;100396.38;;;17.04;91.31
22605;BME280;11469;49.024;8.246;2022-10-31T15:17:02;100382.66;;;16.92;91.54
22605;BME280;11469;49.024;8.246;2022-10-31T15:19:30;100377.81;;;16.92;91.97
22605;BME280;11469;49.024;8.246;2022-10-31T15:21:57;100368.06;;;17.04;91.64
22605;BME280;11469;49.024;8.246;2022-10-31T15:24:25;100356.78;;;16.97;92.72
22605;BME280;11469;49.024;8.246;2022-10-31T15:26:54;100349.50;;;16.82;94.11